Time;durP1;ratioP1;P1;durP2;ratioP2;P2;SDS_P1;SDS_P2;PMS_P1;PMS_P2;Temp;Humidity;BMP_temperature;BMP_pressure;BME280_temperature;BME280_humidity;BME280_pressure;Samples;Min_cycle;Max_cycle;Signal;HPM_P1;HPM_P2
2023/10/05 08:00:15;;;;;;;;;;;;;;;8.52;100.00;100724.25;5030153;28;19932;-79
2023/10/05 08:02:40;;;;;;;;;;;;;;;8.56;100.00;100734.75;5032817;28;19925;-81
2023/10/05 08:05:07;;;;;;;;;;;;;;;8.57;100.00;100734.72;5017778;28;19924;-81
2023/10/05 08:07:32;;;;;;;;;;;;;;;8.57;100.00;100741.75;5035946;28;20291;-80
2023/10/05 08:09:59;;;;;;;;;;;;;;;8.59;100.00;100745.25;5036022;28;19917;-80
2023/10/05 08:12:26;;;;;;;;;;;;;;;8.59;100.00;100745.25;5034603;28;19920;-80
2023/10/05 08:14:51;;;;;;;;;;;;;;;8.61;100.00;100748.75;5035848;28;20512;-78
2023/10/05 08:17:17;;;;;;;;;;;;;;;8.64;100.00;100753.97;5035790;28;19959;-77
2023/10/05 08:19:43;;;;;;;;;;;;;;;8.62;100.00;100754.00;5035854;28;19928;-80
2023/10/05 08:22:09;;;;;;;;;;;;;;;8.63;100.00;100762.78;5035733;28;19921;-78
2023/10/05 08:24:35;;;;;;;;;;;;;;;8.65;100.00;100766.28;5035832;28;20384;-80
2023/10/05 08:27:00;;;;;;;;;;;;;;;8.64;100.00;100753.97;5034218;28;19975;-80
2023/10/05 08:29:27;;;;;;;;;;;;;;;8.65;100.00;100753.06;5035533;28;19917;-80
2023/10/05 08:31:53;;;;;;;;;;;;;;;8.68;100.00;100768.84;5035614;28;19917;-79
2023/10/05 08:34:21;;;;;;;;;;;;;;;8.65;100.00;100769.78;5035191;28;19924;-80
2023/10/05 08:36:53;;;;;;;;;;;;;;;8.67;100.00;100767.13;5035424;28;19917;-80
2023/10/05 08:39:26;;;;;;;;;;;;;;;8.68;100.00;100761.81;5035364;28;20119;-80
2023/10/05 08:41:55;;;;;;;;;;;;;;;8.72;100.00;100757.31;5033234;28;19925;-80
2023/10/05 08:44:27;;;;;;;;;;;;;;;8.73;100.00;100770.50;5035339;28;19921;-80
2023/10/05 08:46:58;;;;;;;;;;;;;;;8.74;100.00;100771.38;5035307;28;19913;-80
2023/10/05 08:49:24;;;;;;;;;;;;;;;8.78;100.00;100767.78;5017056;28;20281;-80
2023/10/05 08:51:50;;;;;;;;;;;;;;;8.78;100.00;100769.56;5034999;28;19979;-82
2023/10/05 08:54:16;;;;;;;;;;;;;;;8.80;100.00;100776.53;5016866;28;19916;-81
2023/10/05 08:56:42;;;;;;;;;;;;;;;8.79;100.00;100772.16;5035031;28;20388;-82
2023/10/05 08:59:13;;;;;;;;;;;;;;;8.80;100.00;100773.03;5033651;28;19925;-81
2023/10/05 09:01:39;;;;;;;;;;;;;;;8.82;100.00;100774.75;5034874;28;19971;-80
2023/10/05 09:06:30;;;;;;;;;;;;;;;8.84;100.00;100772.94;5035039;28;19983;-81
2023/10/05 09:09:08;;;;;;;;;;;;;;;8.24;100.00;100778.44;5034932;28;19921;-82
2023/10/05 09:11:34;;;;;;;;;;;;;;;7.65;100.00;100782.03;5034708;28;19917;-79
2023/10/05 09:14:12;;;;;;;;;;;;;;;7.27;100.00;100778.16;5033074;28;19917;-78
2023/10/05 09:16:41;;;;;;;;;;;;;;;7.27;100.00;100765.88;5034233;28;20277;-80
2023/10/05 09:19:08;;;;;;;;;;;;;;;7.07;100.00;100758.22;5034154;28;20380;-78
2023/10/05 09:21:45;;;;;;;;;;;;;;;6.87;100.00;100750.53;5034411;28;19917;-81
2023/10/05 09:24:20;;;;;;;;;;;;;;;6.82;100.00;100752.38;5034449;28;20362;-79
2023/10/05 09:27:09;;;;;;;;;;;;;;;6.72;100.00;100741.06;5033258;28;20288;-81
2023/10/05 09:29:36;;;;;;;;;;;;;;;6.71;100.00;100741.94;5033555;28;19963;-80
2023/10/05 09:32:08;;;;;;;;;;;;;;;6.61;100.00;100753.50;5015252;28;19917;-82
2023/10/05 09:34:33;;;;;;;;;;;;;;;6.72;100.00;100751.63;5034351;28;19920;-82
2023/10/05 09:37:02;;;;;;;;;;;;;;;6.80;100.00;100763.84;5032865;28;20391;-80
2023/10/05 09:39:30;;;;;;;;;;;;;;;6.68;100.00;100775.38;5034126;28;19917;-82
2023/10/05 09:42:01;;;;;;;;;;;;;;;6.60;100.00;100777.22;5014884;28;19917;-85
2023/10/05 09:44:28;;;;;;;;;;;;;;;6.55;100.00;100793.91;5032910;28;19968;-80
2023/10/05 09:46:54;;;;;;;;;;;;;;;6.49;100.00;100793.13;5034209;28;20344;-79
2023/10/05 09:49:21;;;;;;;;;;;;;;;6.37;100.00;100796.75;5034072;28;19927;-81
2023/10/05 09:51:48;;;;;;;;;;;;;;;6.49;100.00;100795.75;5034164;28;19924;-82
2023/10/05 09:54:14;;;;;;;;;;;;;;;6.35;100.00;100783.59;5033696;28;20379;-79
2023/10/05 09:56:41;;;;;;;;;;;;;;;6.27;100.00;100781.91;5033854;28;19921;-83
2023/10/05 09:59:15;;;;;;;;;;;;;;;6.45;100.00;100788.78;5013614;28;19921;-82
2023/10/05 10:01:42;;;;;;;;;;;;;;;6.31;100.00;100786.28;5031137;28;20050;-80
2023/10/05 10:04:09;;;;;;;;;;;;;;;6.29;100.00;100773.13;5032320;28;19928;-81
2023/10/05 10:06:35;;;;;;;;;;;;;;;6.31;100.00;100757.31;5033703;28;20346;-81
2023/10/05 10:09:10;;;;;;;;;;;;;;;6.34;100.00;100757.28;5033706;28;19957;-80
2023/10/05 10:11:36;;;;;;;;;;;;;;;6.25;100.00;100750.34;5033372;28;20323;-81
2023/10/05 10:14:05;;;;;;;;;;;;;;;6.40;100.00;100759.88;5032463;28;19924;-81
2023/10/05 10:16:34;;;;;;;;;;;;;;;6.31;100.00;100762.59;5032924;28;19925;-81
2023/10/05 10:19:18;;;;;;;;;;;;;;;6.31;100.00;100760.81;5032883;28;20008;-79
2023/10/05 10:21:53;;;;;;;;;;;;;;;6.39;100.00;100757.25;5033073;28;19928;-81
2023/10/05 10:24:19;;;;;;;;;;;;;;;6.36;100.00;100761.63;5033360;28;20339;-80
2023/10/05 10:26:53;;;;;;;;;;;;;;;6.39;100.00;100760.75;5014794;28;20131;-80
2023/10/05 10:29:22;;;;;;;;;;;;;;;6.32;100.00;100759.09;5015232;28;19987;-78
2023/10/05 10:32:07;;;;;;;;;;;;;;;6.23;100.00;100751.28;5033472;28;19912;-81
2023/10/05 10:34:49;;;;;;;;;;;;;;;6.27;100.00;100750.34;5015048;28;19917;-78
2023/10/05 10:37:34;;;;;;;;;;;;;;;6.29;100.00;100767.00;5014802;28;20323;-81
2023/10/05 10:40:00;;;;;;;;;;;;;;;6.25;100.00;100760.88;5014308;28;19921;-81
2023/10/05 10:42:45;;;;;;;;;;;;;;;6.24;100.00;100769.69;5013480;28;20334;-81
2023/10/05 10:45:14;;;;;;;;;;;;;;;6.22;100.00;100750.38;5033179;28;19928;-80
2023/10/05 10:47:45;;;;;;;;;;;;;;;6.75;100.00;100741.91;5014821;28;19917;-81
2023/10/05 10:50:22;;;;;;;;;;;;;;;6.41;100.00;100737.91;5032937;28;19924;-80
2023/10/05 10:52:50;;;;;;;;;;;;;;;6.28;100.00;100737.16;5032874;28;19917;-80
2023/10/05 10:55:15;;;;;;;;;;;;;;;6.27;100.00;100709.13;5032671;28;19961;-80
2023/10/05 10:57:44;;;;;;;;;;;;;;;6.17;100.00;100710.06;5031553;28;19983;-80
2023/10/05 11:02:56;;;;;;;;;;;;;;;6.24;100.00;100724.03;5032737;28;20081;-81
2023/10/05 11:05:26;;;;;;;;;;;;;;;8.33;100.00;100717.56;5032797;28;19961;-79
2023/10/05 11:07:59;;;;;;;;;;;;;;;7.13;100.00;100708.94;5032449;28;19921;-80
2023/10/05 11:10:30;;;;;;;;;;;;;;;6.79;100.00;100696.22;5031873;28;19975;-81
2023/10/05 11:13:03;;;;;;;;;;;;;;;6.71;100.00;100691.91;5030846;28;19925;-80
2023/10/05 11:15:32;;;;;;;;;;;;;;;6.61;100.00;100686.81;5032440;28;19924;-83
2023/10/05 11:17:59;;;;;;;;;;;;;;;6.55;100.00;100682.47;5014554;28;19928;-80
2023/10/05 11:20:25;;;;;;;;;;;;;;;6.47;100.00;100695.72;5032374;28;19960;-80
2023/10/05 11:22:55;;;;;;;;;;;;;;;6.52;100.00;100703.56;5032422;28;19921;-81
2023/10/05 11:25:31;;;;;;;;;;;;;;;6.47;100.00;100700.97;5014059;28;20411;-80
2023/10/05 11:27:57;;;;;;;;;;;;;;;6.45;100.00;100697.50;5031140;28;19921;-79
2023/10/05 11:30:25;;;;;;;;;;;;;;;6.44;100.00;100692.25;5032357;28;20015;-79
2023/10/05 11:32:56;;;;;;;;;;;;;;;6.43;100.00;100717.72;5032122;28;19979;-80
2023/10/05 11:35:42;;;;;;;;;;;;;;;6.38;100.00;100727.41;5032101;28;19920;-86
2023/10/05 11:38:14;;;;;;;;;;;;;;;6.44;100.00;100729.13;5013781;28;19921;-84
2023/10/05 11:40:48;;;;;;;;;;;;;;;6.42;100.00;100725.63;5031899;28;20042;-82
2023/10/05 11:43:15;;;;;;;;;;;;;;;6.43;100.00;100722.09;5030750;28;19917;-80
2023/10/05 11:45:56;;;;;;;;;;;;;;;6.40;100.00;100711.59;5031991;28;19921;-81
2023/10/05 11:48:26;;;;;;;;;;;;;;;6.40;100.00;100712.47;5030620;28;19921;-81
2023/10/05 11:50:52;;;;;;;;;;;;;;;6.41;100.00;100708.06;5031887;28;19917;-82
2023/10/05 11:53:21;;;;;;;;;;;;;;;6.46;100.00;100704.53;5031084;28;20261;-81
2023/10/05 11:55:50;;;;;;;;;;;;;;;6.37;100.00;100704.63;5031226;28;19960;-80
2023/10/05 11:58:18;;;;;;;;;;;;;;;6.41;100.00;100705.44;5029502;28;19924;-81
2023/10/05 12:00:46;;;;;;;;;;;;;;;6.46;100.00;100701.00;5030645;28;19918;-80
2023/10/05 12:03:12;;;;;;;;;;;;;;;6.41;100.00;100694.91;5031972;28;19960;-79
2023/10/05 12:05:38;;;;;;;;;;;;;;;6.35;100.00;100685.31;5031863;28;19987;-81
2023/10/05 12:08:04;;;;;;;;;;;;;;;6.36;100.00;100698.47;5013541;28;19971;-80
2023/10/05 12:10:31;;;;;;;;;;;;;;;6.30;100.00;100711.72;5031775;28;19968;-81
2023/10/05 12:12:56;;;;;;;;;;;;;;;6.25;100.00;100713.50;5029575;28;20372;-82
2023/10/05 12:15:23;;;;;;;;;;;;;;;6.29;100.00;100707.31;5031826;28;19971;-80
2023/10/05 12:17:49;;;;;;;;;;;;;;;6.25;100.00;100700.34;5031738;28;20008;-79
2023/10/05 12:20:14;;;;;;;;;;;;;;;6.33;100.00;100689.72;5031599;28;20074;-80
2023/10/05 12:22:40;;;;;;;;;;;;;;;6.25;100.00;100692.44;5031556;28;20330;-80
2023/10/05 12:25:07;;;;;;;;;;;;;;;6.31;100.00;100702.91;5031572;28;20510;-80
2023/10/05 12:27:33;;;;;;;;;;;;;;;6.19;100.00;100692.53;5030387;28;20026;-81
2023/10/05 12:29:59;;;;;;;;;;;;;;;6.30;100.00;100687.13;5031695;28;19968;-80
2023/10/05 12:32:24;;;;;;;;;;;;;;;6.28;100.00;100673.97;5031600;28;19925;-80
2023/10/05 12:34:51;;;;;;;;;;;;;;;6.30;100.00;100676.59;5031653;28;19921;-80
2023/10/05 12:37:21;;;;;;;;;;;;;;;6.28;100.00;100671.34;5031588;28;19940;-84
2023/10/05 12:39:46;;;;;;;;;;;;;;;6.27;100.00;100681.91;5031527;28;20376;-80
2023/10/05 12:42:12;;;;;;;;;;;;;;;6.28;100.00;100670.50;5030248;28;19924;-80
2023/10/05 12:44:39;;;;;;;;;;;;;;;6.23;100.00;100681.06;5013543;28;19923;-81
2023/10/05 12:47:07;;;;;;;;;;;;;;;6.26;100.00;100693.34;5030092;28;19925;-80
2023/10/05 12:49:33;;;;;;;;;;;;;;;6.25;100.00;100683.69;5025312;28;19927;-80
2023/10/05 12:51:59;;;;;;;;;;;;;;;6.24;100.00;100674.03;5020606;28;19920;-80
2023/10/05 12:54:34;;;;;;;;;;;;;;;6.31;100.00;100665.19;5023507;28;19921;-80
2023/10/05 12:57:09;;;;;;;;;;;;;;;6.20;100.00;100662.69;5022672;28;19921;-80
2023/10/05 12:59:34;;;;;;;;;;;;;;;6.22;100.00;100663.53;5014931;28;20012;-80
2023/10/05 13:02:03;;;;;;;;;;;;;;;6.21;100.00;100661.81;5020802;28;20025;-80
2023/10/05 13:04:32;;;;;;;;;;;;;;;6.12;100.00;100669.78;5022854;28;19925;-80
2023/10/05 13:06:57;;;;;;;;;;;;;;;6.21;100.00;100660.91;5024983;28;20343;-81
2023/10/05 13:09:23;;;;;;;;;;;;;;;6.25;100.00;100658.22;5022737;28;19996;-80
2023/10/05 13:11:48;;;;;;;;;;;;;;;6.29;100.00;100657.31;5019479;28;19921;-78
2023/10/05 13:14:19;;;;;;;;;;;;;;;6.21;100.00;100653.00;5004360;28;19932;-80
2023/10/05 13:16:44;;;;;;;;;;;;;;;6.20;100.00;100665.31;5023314;28;20403;-84
2023/10/05 13:19:12;;;;;;;;;;;;;;;6.20;100.00;100656.56;5024809;28;19952;-80
2023/10/05 13:21:39;;;;;;;;;;;;;;;6.23;100.00;100657.38;5024277;28;19918;-80
2023/10/05 13:24:06;;;;;;;;;;;;;;;6.30;100.00;100658.19;5006673;28;19925;-81
2023/10/05 13:26:31;;;;;;;;;;;;;;;6.30;100.00;100652.91;5024882;28;19945;-81
2023/10/05 13:29:03;;;;;;;;;;;;;;;6.31;100.00;100652.91;5023344;28;19922;-82
2023/10/05 13:31:28;;;;;;;;;;;;;;;6.30;100.00;100653.81;5014955;28;19969;-81
2023/10/05 13:33:59;;;;;;;;;;;;;;;6.27;100.00;100667.00;5023986;28;19960;-81
2023/10/05 13:36:26;;;;;;;;;;;;;;;6.32;100.00;100664.31;5024578;28;19921;-80
2023/10/05 13:38:54;;;;;;;;;;;;;;;6.28;100.00;100662.59;5024597;28;20260;-80
2023/10/05 13:41:19;;;;;;;;;;;;;;;6.27;100.00;100674.91;5024028;28;19941;-80
2023/10/05 13:43:47;;;;;;;;;;;;;;;6.30;100.00;100661.69;5022554;28;20375;-81
2023/10/05 13:46:22;;;;;;;;;;;;;;;6.26;100.00;100665.25;5006829;28;19913;-81
2023/10/05 13:48:48;;;;;;;;;;;;;;;6.30;100.00;100664.34;5023434;28;19944;-80
2023/10/05 13:51:18;;;;;;;;;;;;;;;6.24;100.00;100661.78;5022877;28;19914;-81
2023/10/05 13:53:45;;;;;;;;;;;;;;;6.27;100.00;100667.00;5022808;28;20403;-82
2023/10/05 13:56:12;;;;;;;;;;;;;;;6.27;100.00;100677.53;5023530;28;19917;-82
2023/10/05 13:58:43;;;;;;;;;;;;;;;6.15;100.00;100677.66;5022630;28;20303;-80
2023/10/05 14:01:15;;;;;;;;;;;;;;;6.18;100.00;100675.84;5005458;28;20169;-81
2023/10/05 14:03:44;;;;;;;;;;;;;;;6.27;100.00;100671.38;5006035;28;19968;-81
2023/10/05 14:06:09;;;;;;;;;;;;;;;6.18;100.00;100667.09;5024021;28;19929;-81
2023/10/05 14:08:35;;;;;;;;;;;;;;;6.25;100.00;100663.50;5023637;28;19918;-81
2023/10/05 14:11:01;;;;;;;;;;;;;;;6.21;100.00;100671.44;5023671;28;19932;-81
2023/10/05 14:13:27;;;;;;;;;;;;;;;6.10;100.00;100661.91;5021852;28;19972;-81
2023/10/05 14:15:52;;;;;;;;;;;;;;;6.14;100.00;100663.63;5023368;28;20321;-80
2023/10/05 14:18:17;;;;;;;;;;;;;;;6.15;100.00;100660.09;5023377;28;20400;-81
2023/10/05 14:20:47;;;;;;;;;;;;;;;6.16;100.00;100661.00;5023466;28;19918;-82
2023/10/05 14:23:12;;;;;;;;;;;;;;;6.21;100.00;100653.91;5023633;28;19925;-81
2023/10/05 14:25:38;;;;;;;;;;;;;;;6.10;100.00;100650.53;5023942;28;19921;-80
2023/10/05 14:28:05;;;;;;;;;;;;;;;6.19;100.00;100647.78;5022073;28;20380;-81
2023/10/05 14:30:30;;;;;;;;;;;;;;;6.08;100.00;100652.28;5023171;28;20372;-81
2023/10/05 14:32:56;;;;;;;;;;;;;;;6.14;100.00;100653.09;5023709;28;19917;-80
2023/10/05 14:35:21;;;;;;;;;;;;;;;6.22;100.00;100653.00;5005704;28;19917;-82
2023/10/05 14:37:52;;;;;;;;;;;;;;;6.14;100.00;100649.59;5022954;28;19971;-80
2023/10/05 14:40:24;;;;;;;;;;;;;;;6.21;100.00;100646.00;5020722;28;19972;-80
2023/10/05 14:42:50;;;;;;;;;;;;;;;6.16;100.00;100642.56;5020796;28;19921;-80
2023/10/05 14:45:15;;;;;;;;;;;;;;;6.12;100.00;100638.22;5023025;28;19922;-80
2023/10/05 14:47:43;;;;;;;;;;;;;;;6.13;100.00;100635.56;5022800;28;20008;-78
2023/10/05 14:50:11;;;;;;;;;;;;;;;6.12;100.00;100638.22;5022027;28;19918;-82
2023/10/05 14:52:36;;;;;;;;;;;;;;;6.17;100.00;100641.66;5023376;28;20015;-78
2023/10/05 14:55:03;;;;;;;;;;;;;;;6.16;100.00;100646.06;5022993;28;20352;-80
2023/10/05 14:57:29;;;;;;;;;;;;;;;6.13;100.00;100646.09;5021403;28;19917;-82
2023/10/05 14:59:55;;;;;;;;;;;;;;;6.13;100.00;100639.97;5022568;28;20001;-80
2023/10/05 15:02:21;;;;;;;;;;;;;;;6.18;100.00;100639.00;5023237;28;19969;-80
2023/10/05 15:04:46;;;;;;;;;;;;;;;6.24;100.00;100632.81;5022754;28;20435;-81
2023/10/05 15:07:11;;;;;;;;;;;;;;;6.17;100.00;100637.28;5022327;28;20556;-81
2023/10/05 15:09:37;;;;;;;;;;;;;;;6.13;100.00;100635.56;5022759;28;19952;-80
2023/10/05 15:12:04;;;;;;;;;;;;;;;6.20;100.00;100628.47;5020841;28;20438;-82
2023/10/05 15:14:30;;;;;;;;;;;;;;;6.21;100.00;100627.59;5022730;28;20288;-79
2023/10/05 15:16:57;;;;;;;;;;;;;;;6.20;100.00;100620.56;5022421;28;19921;-79
2023/10/05 15:19:22;;;;;;;;;;;;;;;6.24;100.00;100632.81;5022305;28;19921;-78
2023/10/05 15:21:48;;;;;;;;;;;;;;;6.28;100.00;100637.13;5022459;28;19925;-79
2023/10/05 15:24:14;;;;;;;;;;;;;;;6.23;100.00;100636.31;5021786;28;19927;-80
2023/10/05 15:26:40;;;;;;;;;;;;;;;6.21;100.00;100632.84;5022286;28;20008;-82
2023/10/05 15:29:08;;;;;;;;;;;;;;;6.22;100.00;100631.94;4998145;28;19927;-81
2023/10/05 15:31:34;;;;;;;;;;;;;;;6.18;100.00;100631.13;5017530;28;19964;-84
2023/10/05 15:34:03;;;;;;;;;;;;;;;6.23;100.00;100624.94;5003158;28;19969;-83
2023/10/05 15:36:28;;;;;;;;;;;;;;;6.19;100.00;100626.75;5018849;28;19922;-79
2023/10/05 15:38:54;;;;;;;;;;;;;;;6.14;100.00;100629.44;5018711;28;19925;-78
2023/10/05 15:41:21;;;;;;;;;;;;;;;6.21;100.00;100627.59;5022190;28;19917;-85
2023/10/05 15:43:47;;;;;;;;;;;;;;;6.14;100.00;100628.53;5020658;28;20020;-85
2023/10/05 15:46:12;;;;;;;;;;;;;;;6.22;100.00;100621.41;5022622;28;20012;-79
2023/10/05 15:48:37;;;;;;;;;;;;;;;6.21;100.00;100624.94;5022436;28;19949;-79
2023/10/05 15:51:02;;;;;;;;;;;;;;;6.16;100.00;100629.41;5021723;28;19918;-79
2023/10/05 15:53:30;;;;;;;;;;;;;;;6.24;100.00;100632.81;5021954;28;19917;-81
2023/10/05 15:55:55;;;;;;;;;;;;;;;6.23;100.00;100633.69;5021722;28;19921;-80
2023/10/05 15:58:20;;;;;;;;;;;;;;;6.18;100.00;100625.84;5020746;28;19944;-80
2023/10/05 16:00:45;;;;;;;;;;;;;;;6.22;100.00;100625.81;5019276;28;19932;-85
2023/10/05 16:03:11;;;;;;;;;;;;;;;6.17;100.00;100624.13;5022447;28;19932;-80
2023/10/05 16:05:42;;;;;;;;;;;;;;;6.18;100.00;100628.47;5020576;28;20296;-80
2023/10/05 16:08:08;;;;;;;;;;;;;;;6.14;100.00;100631.16;5020342;28;19932;-82
2023/10/05 16:10:34;;;;;;;;;;;;;;;6.10;100.00;100630.34;5003111;28;19917;-80
2023/10/05 16:13:00;;;;;;;;;;;;;;;6.12;100.00;100635.56;5019627;28;19933;-79
2023/10/05 16:15:26;;;;;;;;;;;;;;;6.10;100.00;100632.09;5021684;28;19918;-79
2023/10/05 16:17:52;;;;;;;;;;;;;;;6.14;100.00;100631.16;5021840;28;19925;-79
2023/10/05 16:20:20;;;;;;;;;;;;;;;6.07;100.00;100633.00;5003865;28;19917;-80
2023/10/05 16:22:47;;;;;;;;;;;;;;;6.15;100.00;100636.41;5003905;28;20411;-80
2023/10/05 16:25:15;;;;;;;;;;;;;;;6.11;100.00;100632.09;5022940;28;19927;-80
2023/10/05 16:27:41;;;;;;;;;;;;;;;6.22;100.00;100631.94;5022574;28;19988;-80
2023/10/05 16:30:07;;;;;;;;;;;;;;;6.20;100.00;100635.50;5026068;28;19917;-80
2023/10/05 16:32:35;;;;;;;;;;;;;;;6.16;100.00;100647.81;5024687;28;20016;-78
2023/10/05 16:35:00;;;;;;;;;;;;;;;6.13;100.00;100645.22;5025274;28;19918;-79
2023/10/05 16:37:30;;;;;;;;;;;;;;;6.12;100.00;100648.72;5024811;28;20265;-79
2023/10/05 16:39:57;;;;;;;;;;;;;;;6.21;100.00;100648.63;5025612;28;20297;-80
2023/10/05 16:42:22;;;;;;;;;;;;;;;6.18;100.00;100648.66;5024126;28;19925;-80
2023/10/05 16:44:48;;;;;;;;;;;;;;;6.13;100.00;100646.09;5023057;28;19987;-80
2023/10/05 16:47:13;;;;;;;;;;;;;;;6.18;100.00;100641.63;5025293;28;19917;-79
2023/10/05 16:49:38;;;;;;;;;;;;;;;6.18;100.00;100643.41;5025733;28;20388;-79
2023/10/05 16:52:04;;;;;;;;;;;;;;;6.16;100.00;100632.91;5025038;28;19918;-80
2023/10/05 16:54:30;;;;;;;;;;;;;;;6.08;100.00;100632.13;5024078;28;19926;-84
2023/10/05 16:56:56;;;;;;;;;;;;;;;6.08;100.00;100637.38;5004077;28;20297;-80
2023/10/05 16:59:21;;;;;;;;;;;;;;;6.11;100.00;100647.88;5024397;28;19921;-83
2023/10/05 17:01:46;;;;;;;;;;;;;;;6.16;100.00;100645.19;5023041;28;19928;-78
2023/10/05 17:04:13;;;;;;;;;;;;;;;6.12;100.00;100654.00;5020547;28;20030;-79
2023/10/05 17:06:39;;;;;;;;;;;;;;;6.07;100.00;100645.28;5019892;28;19929;-82
2023/10/05 17:09:09;;;;;;;;;;;;;;;6.03;100.00;100646.19;5002544;28;19944;-80
2023/10/05 17:11:35;;;;;;;;;;;;;;;6.14;100.00;100642.56;5004643;28;20307;-80
2023/10/05 17:14:00;;;;;;;;;;;;;;;6.06;100.00;100648.78;5018744;28;19929;-82
2023/10/05 17:16:29;;;;;;;;;;;;;;;6.11;100.00;100644.34;5004916;28;19929;-80
2023/10/05 17:18:55;;;;;;;;;;;;;;;6.08;100.00;100641.75;5021498;28;20376;-80
2023/10/05 17:21:20;;;;;;;;;;;;;;;6.12;100.00;100648.72;5004804;28;19932;-80
2023/10/05 17:23:45;;;;;;;;;;;;;;;6.18;100.00;100643.41;5024723;28;19921;-81
2023/10/05 17:26:10;;;;;;;;;;;;;;;6.12;100.00;100654.00;5023469;28;19941;-80
2023/10/05 17:28:36;;;;;;;;;;;;;;;6.01;100.00;100656.72;5004046;28;19929;-80
2023/10/05 17:31:01;;;;;;;;;;;;;;;6.11;100.00;100657.50;5024110;28;20434;-78
2023/10/05 17:33:26;;;;;;;;;;;;;;;6.05;100.00;100657.56;5006390;28;20272;-80
2023/10/05 17:35:52;;;;;;;;;;;;;;;6.09;100.00;100654.03;5022963;28;19927;-79
2023/10/05 17:38:17;;;;;;;;;;;;;;;6.07;100.00;100650.56;5023994;28;20388;-80
2023/10/05 17:40:50;;;;;;;;;;;;;;;6.08;100.00;100650.53;5005984;28;19968;-80
2023/10/05 17:43:15;;;;;;;;;;;;;;;6.10;100.00;100654.00;5022076;28;19928;-79
2023/10/05 17:45:45;;;;;;;;;;;;;;;6.06;100.00;100654.91;5006326;28;19921;-80
2023/10/05 17:48:10;;;;;;;;;;;;;;;6.14;100.00;100657.47;5005760;28;20371;-80
2023/10/05 17:50:39;;;;;;;;;;;;;;;5.97;100.00;100669.06;5023097;28;19928;-81
2023/10/05 17:53:06;;;;;;;;;;;;;;;6.00;100.00;100663.75;5020873;28;19925;-84
2023/10/05 17:55:32;;;;;;;;;;;;;;;5.89;100.00;100657.72;5012142;28;19925;-82
2023/10/05 17:57:58;;;;;;;;;;;;;;;5.94;100.00;100661.16;5022269;28;20270;-83
2023/10/05 18:00:23;;;;;;;;;;;;;;;5.97;100.00;100670.81;5024579;28;19926;-82
2023/10/05 18:02:49;;;;;;;;;;;;;;;5.92;100.00;100668.19;5020241;28;19936;-80
2023/10/05 18:05:15;;;;;;;;;;;;;;;5.99;100.00;100680.44;5020467;28;19925;-82
2023/10/05 18:07:40;;;;;;;;;;;;;;;5.97;100.00;100676.94;5022838;28;20285;-84
2023/10/05 18:10:07;;;;;;;;;;;;;;;5.90;100.00;100680.47;5021553;28;19933;-78
2023/10/05 18:12:33;;;;;;;;;;;;;;;5.91;100.00;100682.22;5019832;28;19922;-82
2023/10/05 18:14:58;;;;;;;;;;;;;;;5.82;100.00;100683.19;5005044;28;19921;-79
2023/10/05 18:17:25;;;;;;;;;;;;;;;5.80;100.00;100686.72;5020643;28;19947;-79
2023/10/05 18:19:53;;;;;;;;;;;;;;;5.88;100.00;100690.16;5023618;28;19921;-79
2023/10/05 18:22:18;;;;;;;;;;;;;;;5.97;100.00;100692.72;5021760;28;19921;-79
2023/10/05 18:24:43;;;;;;;;;;;;;;;5.90;100.00;100691.00;5018808;28;20303;-80
2023/10/05 18:27:09;;;;;;;;;;;;;;;5.93;100.00;100695.38;5018053;28;19925;-81
2023/10/05 18:29:34;;;;;;;;;;;;;;;5.95;100.00;100694.47;5021667;28;19924;-83
2023/10/05 18:32:01;;;;;;;;;;;;;;;5.93;100.00;100706.75;5023129;28;19967;-84
2023/10/05 18:34:27;;;;;;;;;;;;;;;5.94;100.00;100698.00;5004663;28;19928;-81
2023/10/05 18:36:52;;;;;;;;;;;;;;;5.81;100.00;100699.00;5019540;28;19921;-80
2023/10/05 18:39:17;;;;;;;;;;;;;;;5.81;100.00;100691.97;5021942;28;20458;-81
2023/10/05 18:41:43;;;;;;;;;;;;;;;5.89;100.00;100694.53;5005373;28;20314;-81
2023/10/05 18:44:08;;;;;;;;;;;;;;;5.89;100.00;100702.44;5020562;28;20388;-79
2023/10/05 18:46:33;;;;;;;;;;;;;;;5.85;100.00;100707.72;5022432;28;20004;-80
2023/10/05 18:48:59;;;;;;;;;;;;;;;5.82;100.00;100724.38;5011010;28;19929;-80
2023/10/05 18:51:25;;;;;;;;;;;;;;;5.85;100.00;100721.75;5000707;28;19933;-79
2023/10/05 18:53:50;;;;;;;;;;;;;;;5.85;100.00;100721.75;5020578;28;19925;-82
2023/10/05 18:56:16;;;;;;;;;;;;;;;5.88;100.00;100718.22;5019066;28;20354;-85
2023/10/05 18:58:41;;;;;;;;;;;;;;;5.81;100.00;100706.88;5017839;28;19925;-79
2023/10/05 19:01:06;;;;;;;;;;;;;;;5.75;100.00;100699.03;5016990;28;19921;-79
2023/10/05 19:03:35;;;;;;;;;;;;;;;5.86;100.00;100694.56;5017367;28;19926;-79
2023/10/05 19:06:00;;;;;;;;;;;;;;;5.87;100.00;100693.69;5017802;28;20023;-79
2023/10/05 19:08:26;;;;;;;;;;;;;;;5.83;100.00;100699.84;5020260;28;20399;-83
2023/10/05 19:10:51;;;;;;;;;;;;;;;5.76;100.00;100699.03;5021419;28;19929;-80
2023/10/05 19:13:20;;;;;;;;;;;;;;;5.83;100.00;100695.44;5018580;28;23813;-83
2023/10/05 19:15:46;;;;;;;;;;;;;;;5.80;100.00;100686.72;5021574;28;19922;-78
2023/10/05 19:18:12;;;;;;;;;;;;;;;5.87;100.00;100690.16;5021744;28;19925;-86
2023/10/05 19:20:38;;;;;;;;;;;;;;;5.87;100.00;100684.91;5002800;28;20415;-80
2023/10/05 19:23:04;;;;;;;;;;;;;;;5.80;100.00;100689.34;5022430;28;20016;-84
2023/10/05 19:25:30;;;;;;;;;;;;;;;5.77;100.00;100690.25;5011845;28;19956;-80
2023/10/05 19:27:55;;;;;;;;;;;;;;;5.77;100.00;100689.38;5021196;28;19960;-79
2023/10/05 19:30:21;;;;;;;;;;;;;;;5.77;100.00;100684.13;5015920;28;20843;-81
2023/10/05 19:32:47;;;;;;;;;;;;;;;5.72;100.00;100680.66;5018839;28;19929;-80
2023/10/05 19:35:12;;;;;;;;;;;;;;;5.70;100.00;100687.69;5021145;28;19951;-81
2023/10/05 19:37:38;;;;;;;;;;;;;;;5.72;100.00;100699.06;5022095;28;19918;-83
2023/10/05 19:40:05;;;;;;;;;;;;;;;5.65;100.00;100690.38;5020987;28;19945;-84
2023/10/05 19:42:30;;;;;;;;;;;;;;;5.77;100.00;100694.63;5018470;28;19917;-80
2023/10/05 19:44:55;;;;;;;;;;;;;;;5.71;100.00;100702.56;5002101;28;19928;-80
2023/10/05 19:47:20;;;;;;;;;;;;;;;5.69;100.00;100691.19;5022516;28;19968;-79
2023/10/05 19:49:46;;;;;;;;;;;;;;;5.78;100.00;100694.63;5021205;28;19925;-81
2023/10/05 19:52:12;;;;;;;;;;;;;;;5.68;100.00;100695.59;5021142;28;19928;-85
2023/10/05 19:54:37;;;;;;;;;;;;;;;5.86;100.00;100686.66;5001744;28;19931;-81
2023/10/05 19:57:02;;;;;;;;;;;;;;;5.77;100.00;100681.50;5020532;28;19921;-79
2023/10/05 19:59:28;;;;;;;;;;;;;;;5.80;100.00;100677.06;5024686;28;19980;-80
2023/10/05 20:01:53;;;;;;;;;;;;;;;5.76;100.00;100670.09;5021874;28;19925;-82
2023/10/05 20:04:18;;;;;;;;;;;;;;;5.86;100.00;100668.25;5007092;28;20276;-82
2023/10/05 20:06:44;;;;;;;;;;;;;;;5.80;100.00;100666.53;5025092;28;20043;-80
2023/10/05 20:09:13;;;;;;;;;;;;;;;5.77;100.00;100663.06;5023183;28;20415;-82
2023/10/05 20:11:39;;;;;;;;;;;;;;;5.80;100.00;100665.69;5021497;28;19928;-80
2023/10/05 20:14:08;;;;;;;;;;;;;;;5.85;100.00;100670.91;5005903;28;19941;-85
2023/10/05 20:16:33;;;;;;;;;;;;;;;5.73;100.00;100664.88;5005268;28;19952;-80
2023/10/05 20:18:59;;;;;;;;;;;;;;;5.70;100.00;100674.56;5024692;28;20033;-81
2023/10/05 20:21:24;;;;;;;;;;;;;;;5.72;100.00;100665.75;5025335;28;19991;-80
2023/10/05 20:23:49;;;;;;;;;;;;;;;5.72;100.00;100670.16;5023244;28;19928;-81
2023/10/05 20:26:15;;;;;;;;;;;;;;;5.70;100.00;100674.56;5008438;28;20023;-82
2023/10/05 20:28:40;;;;;;;;;;;;;;;5.69;100.00;100672.78;5022621;28;19925;-81
2023/10/05 20:31:09;;;;;;;;;;;;;;;5.62;100.00;100659.69;5006493;28;19925;-79
2023/10/05 20:33:34;;;;;;;;;;;;;;;5.63;100.00;100661.44;5025111;28;19917;-79
2023/10/05 20:36:01;;;;;;;;;;;;;;;5.60;100.00;100661.47;5025442;28;19924;-80
2023/10/05 20:38:26;;;;;;;;;;;;;;;5.61;100.00;100657.94;5006637;28;19960;-77
2023/10/05 20:40:52;;;;;;;;;;;;;;;5.59;100.00;100664.13;5020270;28;20377;-82